Time;durP1;ratioP1;P1;durP2;ratioP2;P2;SDS_P1;SDS_P2;PMS_P1;PMS_P2;Temp;Humidity;BMP_temperature;BMP_pressure;BME280_temperature;BME280_humidity;BME280_pressure;Samples;Min_cycle;Max_cycle;Signal;HPM_P1;HPM_P2
2023/02/22 08:34:09;;;;;;;3.93;2.90;;;;;;;14.51;100.00;99361.59;6329801;22;20255;-84
2023/02/22 08:36:41;;;;;;;5.57;2.70;;;;;;;14.57;100.00;99362.44;6321228;22;20211;-86
2023/02/22 08:39:07;;;;;;;5.70;2.80;;;;;;;14.68;100.00;99370.41;6313412;22;20216;-88
2023/02/22 08:41:34;;;;;;;4.93;2.57;;;;;;;14.77;100.00;99365.38;6333579;22;20200;-88
2023/02/22 08:44:01;;;;;;;4.93;2.90;;;;;;;14.93;100.00;99365.28;6329221;22;20204;-82
2023/02/22 08:46:28;;;;;;;4.47;2.67;;;;;;;15.04;100.00;99365.41;6308268;22;20285;-90
2023/02/22 08:48:54;;;;;;;4.87;3.47;;;;;;;15.08;100.00;99361.94;6255405;22;20270;-91
2023/02/22 08:51:21;;;;;;;5.30;3.70;;;;;;;15.22;100.00;99371.25;6280362;22;20289;-88
2023/02/22 08:53:48;;;;;;;8.03;4.60;;;;;;;15.24;100.00;99369.13;6281227;22;20736;-89
2023/02/22 08:56:14;;;;;;;7.30;4.00;;;;;;;15.34;100.00;99363.00;6280334;22;20545;-90
2023/02/22 08:58:41;;;;;;;6.10;4.17;;;;;;;15.44;100.00;99360.38;6280380;22;20199;-90
2023/02/22 09:01:08;;;;;;;4.43;3.63;;;;;;;15.49;100.00;99360.41;6307675;22;20230;-90
2023/02/22 09:03:34;;;;;;;6.33;3.70;;;;;;;15.57;100.00;99368.09;6280846;22;20670;-90
2023/02/22 09:06:03;;;;;;;5.83;3.50;;;;;;;15.67;100.00;99362.75;6306488;22;20210;-87
2023/02/22 09:08:29;;;;;;;4.30;3.30;;;;;;;15.84;100.00;99366.13;6254701;22;20211;-92
2023/02/22 09:10:56;;;;;;;4.30;3.20;;;;;;;16.02;100.00;99364.88;6255315;22;20199;-93
2023/02/22 09:13:23;;;;;;;4.93;3.20;;;;;;;16.10;100.00;99366.25;6308135;22;20204;-94
2023/02/22 09:15:49;;;;;;;4.37;3.00;;;;;;;16.14;100.00;99364.69;6307885;22;20204;-95
2023/02/22 09:18:16;;;;;;;4.93;2.90;;;;;;;16.29;100.00;99362.84;6230030;22;20286;-95
2023/02/22 09:20:43;;;;;;;4.40;2.70;;;;;;;16.29;98.59;99365.56;6255525;22;20212;-95
2023/02/22 09:23:10;;;;;;;3.17;2.87;;;;;;;16.33;97.24;99363.13;6307980;22;20207;-96
2023/02/22 09:25:39;;;;;;;3.13;2.83;;;;;;;16.43;96.48;99355.06;6281131;22;20208;-95
2023/02/22 09:28:06;;;;;;;5.73;2.83;;;;;;;16.46;95.81;99354.56;6256164;22;20282;-92
2023/02/22 09:30:34;;;;;;;3.97;3.20;;;;;;;16.51;94.34;99361.88;6280610;22;20203;-94
2023/02/22 09:33:12;;;;;;;3.50;3.20;;;;;;;16.48;93.92;99363.19;6230298;22;20255;-93
2023/02/22 09:35:41;;;;;;;3.73;3.27;;;;;;;16.41;93.95;99348.31;6230171;22;20215;-93
2023/02/22 09:38:09;;;;;;;3.57;3.20;;;;;;;16.64;92.27;99356.81;6229903;22;20223;-93
2023/02/22 09:40:45;;;;;;;4.23;3.33;;;;;;;16.75;92.13;99346.81;6229939;22;20675;-93
2023/02/22 09:43:20;;;;;;;4.00;3.60;;;;;;;16.85;90.30;99340.63;6256792;22;20206;-92
2023/02/22 09:46:01;;;;;;;4.60;3.47;;;;;;;16.89;89.14;99350.66;6255473;22;20550;-93
2023/02/22 09:48:30;;;;;;;3.47;3.20;;;;;;;17.01;87.00;99347.72;6281130;22;20207;-93
2023/02/22 09:50:58;;;;;;;3.70;3.37;;;;;;;17.14;85.82;99347.19;6255542;22;20284;-93
2023/02/22 09:53:41;;;;;;;3.70;2.80;;;;;;;17.38;84.75;99342.06;6280706;22;20211;-93
2023/02/22 09:56:10;;;;;;;3.33;3.03;;;;;;;17.69;83.41;99340.97;6254493;22;20207;-93
2023/02/22 09:58:44;;;;;;;3.07;2.80;;;;;;;17.93;81.93;99324.94;6255357;22;20200;-93
2023/02/22 10:01:21;;;;;;;2.67;2.47;;;;;;;18.15;77.62;99328.13;6255435;22;20211;-92
2023/02/22 10:03:53;;;;;;;3.10;2.80;;;;;;;18.09;76.80;99321.13;6255163;22;20231;-94
2023/02/22 10:06:22;;;;;;;2.50;2.30;;;;;;;18.23;75.64;99319.47;6228830;22;20207;-94
2023/02/22 10:08:55;;;;;;;2.90;2.20;;;;;;;18.15;73.58;99320.00;6229156;22;20203;-94
2023/02/22 10:11:21;;;;;;;2.33;2.13;;;;;;;18.07;73.62;99312.44;6255740;22;20200;-93
2023/02/22 10:14:13;;;;;;;2.47;2.10;;;;;;;17.96;73.02;99317.06;6255059;22;20233;-93
2023/02/22 10:16:45;;;;;;;1.70;1.60;;;;;;;17.83;71.31;99314.13;6307020;22;20215;-93
2023/02/22 10:19:54;;;;;;;1.17;1.17;;;;;;;17.49;68.56;99303.06;6280641;22;20207;-93
2023/02/22 10:22:39;;;;;;;1.30;1.20;;;;;;;17.44;68.28;99306.59;6104463;23;20215;-93
2023/02/22 10:25:13;;;;;;;1.23;1.13;;;;;;;17.24;68.46;99300.34;6129091;23;20359;-93
2023/02/22 10:28:02;;;;;;;1.70;1.60;;;;;;;17.10;69.72;99295.47;6181797;22;20227;-93
2023/02/22 10:30:32;;;;;;;2.13;1.97;;;;;;;17.09;70.10;99301.16;6279634;22;20679;-94
2023/02/22 10:33:19;;;;;;;2.33;1.80;;;;;;;16.95;70.23;99298.16;6254544;22;20207;-94
2023/02/22 10:35:46;;;;;;;6.63;4.83;;;;;;;16.93;69.81;99294.94;6280361;22;20235;-94
2023/02/22 10:38:28;;;;;;;2.30;1.90;;;;;;;16.85;70.06;99294.63;6254618;22;20206;-93
2023/02/22 10:41:02;;;;;;;2.60;2.10;;;;;;;16.69;69.37;99291.91;6255330;22;20298;-95
2023/02/22 10:43:29;;;;;;;1.70;1.60;;;;;;;16.70;69.17;99290.81;6280958;22;20211;-94
2023/02/22 10:46:00;;;;;;;1.87;1.33;;;;;;;16.64;68.97;99285.69;6280434;22;20204;-94
2023/02/22 10:48:29;;;;;;;2.10;1.50;;;;;;;16.50;68.76;99292.63;6254940;22;20589;-94
2023/02/22 10:51:01;;;;;;;1.40;1.10;;;;;;;16.57;68.48;99279.66;6254653;22;20274;-94
2023/02/22 10:53:29;;;;;;;3.00;1.80;;;;;;;16.66;69.47;99292.44;6280075;22;20533;-94
2023/02/22 10:56:21;;;;;;;2.17;1.97;;;;;;;16.77;68.88;99281.63;6254298;22;20195;-93
2023/02/22 10:59:01;;;;;;;6.40;5.77;;;;;;;16.90;69.04;99281.09;6279607;22;20204;-95
2023/02/22 11:01:31;;;;;;;3.40;2.60;;;;;;;16.78;71.42;99272.44;6230285;22;20278;-93
2023/02/22 11:04:17;;;;;;;2.60;2.40;;;;;;;16.98;70.91;99280.59;6254510;22;20227;-93
2023/02/22 11:06:47;;;;;;;2.80;2.50;;;;;;;16.81;70.75;99272.72;6253988;22;20290;-93
2023/02/22 11:09:21;;;;;;;4.27;3.60;;;;;;;16.82;71.41;99276.25;6229214;22;20203;-93
2023/02/22 11:11:49;;;;;;;2.43;2.23;;;;;;;16.85;70.02;99268.38;6229023;22;20234;-94
2023/02/22 11:14:27;;;;;;;2.33;2.10;;;;;;;16.59;71.12;99264.84;6254232;22;20688;-94
2023/02/22 11:16:55;;;;;;;4.30;2.20;;;;;;;16.85;70.27;99262.16;6280076;22;20265;-94
2023/02/22 11:19:25;;;;;;;2.20;2.00;;;;;;;16.87;69.16;99250.00;6254454;22;20204;-93
2023/02/22 11:21:57;;;;;;;2.20;2.00;;;;;;;16.93;69.14;99256.25;6279774;22;20736;-92
2023/02/22 11:24:25;;;;;;;3.20;2.00;;;;;;;16.88;68.44;99246.22;6229118;22;21125;-94
2023/02/22 11:27:00;;;;;;;2.37;2.17;;;;;;;16.70;68.78;99242.13;6231895;22;20286;-94
2023/02/22 11:29:31;;;;;;;2.23;2.03;;;;;;;16.70;69.49;99238.63;6229308;22;20225;-93
2023/02/22 11:32:00;;;;;;;2.10;1.70;;;;;;;16.86;69.06;99229.44;6249002;22;20283;-93
2023/02/22 11:34:34;;;;;;;3.10;2.87;;;;;;;16.92;69.23;99230.25;6248606;22;20204;-92
2023/02/22 11:37:35;;;;;;;3.10;2.20;;;;;;;16.87;68.75;99231.06;6224246;22;20208;-93
2023/02/22 11:40:17;;;;;;;2.60;2.40;;;;;;;16.93;68.96;99229.19;6217954;22;20204;-93
2023/02/22 11:42:45;;;;;;;2.53;2.33;;;;;;;16.97;70.05;99230.25;6275934;22;20216;-93
2023/02/22 11:45:12;;;;;;;1.83;1.73;;;;;;;16.53;70.31;99227.19;6224235;22;20204;-96
2023/02/22 11:48:05;;;;;;;2.30;2.07;;;;;;;16.04;71.01;99227.63;6274437;22;20204;-94
2023/02/22 11:53:21;;;;;;;2.47;2.27;;;;;;;16.05;73.36;99214.94;6248388;22;20579;-91
2023/02/22 11:55:59;;;;;;;3.60;2.50;;;;;;;15.78;75.07;99213.19;6294268;22;20210;-87
2023/02/22 11:58:32;;;;;;;2.73;2.53;;;;;;;16.17;75.07;99220.91;6223540;22;1428163;-90
2023/02/22 12:01:10;;;;;;;3.13;2.87;;;;;;;16.39;74.26;99209.88;6275940;22;20211;-93
2023/02/22 12:03:50;;;;;;;5.27;4.13;;;;;;;16.63;73.18;99211.03;6227147;22;20208;-93
2023/02/22 12:06:30;;;;;;;3.50;3.20;;;;;;;16.94;72.69;99207.25;6259291;22;20211;-92
2023/02/22 12:09:22;;;;;;;3.47;2.83;;;;;;;17.17;72.44;99205.88;6286487;22;20702;-93
2023/02/22 12:12:10;;;;;;;6.93;3.20;;;;;;;16.98;73.08;99194.00;6251183;22;20216;-93
2023/02/22 12:15:02;;;;;;;5.80;2.90;;;;;;;17.18;72.81;99194.78;6259524;22;20215;-92
2023/02/22 12:17:39;;;;;;;5.00;3.03;;;;;;;17.31;71.53;99193.41;6283177;22;20205;-95
2023/02/22 12:20:36;;;;;;;3.33;2.93;;;;;;;16.78;73.36;99192.09;6277068;22;20585;-92
2023/02/22 12:23:12;;;;;;;3.63;3.10;;;;;;;17.05;72.71;99184.50;6251885;22;20209;-96
2023/02/22 12:26:09;;;;;;;2.93;2.43;;;;;;;17.20;72.31;99186.41;6225664;22;20224;-96
2023/02/22 12:28:42;;;;;;;3.10;2.80;;;;;;;17.34;71.15;99184.75;6199383;22;20208;-92
2023/02/22 12:31:34;;;;;;;2.80;2.60;;;;;;;17.58;70.16;99171.41;6251181;22;20617;-89
2023/02/22 12:34:16;;;;;;;2.77;2.57;;;;;;;17.71;70.94;99181.69;6276552;22;20254;-88
2023/02/22 12:36:49;;;;;;;3.10;2.80;;;;;;;17.83;68.75;99173.22;6276160;22;20208;-94
2023/02/22 12:39:37;;;;;;;2.77;2.40;;;;;;;17.85;69.11;99177.28;6225128;22;20734;-94
2023/02/22 12:42:25;;;;;;;2.70;2.47;;;;;;;17.63;69.09;99168.72;6254047;22;20184;-92
2023/02/22 12:45:05;;;;;;;3.57;3.10;;;;;;;17.71;68.11;99161.91;6225490;22;20208;-94
2023/02/22 12:47:54;;;;;;;3.20;2.90;;;;;;;17.76;68.27;99164.59;6251083;22;20250;-89
2023/02/22 12:50:23;;;;;;;2.80;2.37;;;;;;;17.67;67.92;99158.94;6224712;22;20204;-92
2023/02/22 12:53:11;;;;;;;2.50;2.30;;;;;;;17.70;68.97;99161.09;6275482;22;20344;-91
2023/02/22 12:55:44;;;;;;;3.17;2.70;;;;;;;17.43;68.93;99157.91;6275695;22;20232;-94
2023/02/22 12:58:25;;;;;;;2.90;2.60;;;;;;;17.62;68.01;99148.13;6275250;22;20223;-92
2023/02/22 13:00:58;;;;;;;4.17;2.87;;;;;;;17.76;68.45;99153.75;6250315;22;20273;-95
2023/02/22 13:03:39;;;;;;;3.23;2.50;;;;;;;17.71;67.49;99149.16;6276965;22;20211;-92
2023/02/22 13:06:14;;;;;;;3.40;3.10;;;;;;;17.76;67.16;99151.03;6249606;22;20216;-91
2023/02/22 13:08:51;;;;;;;2.40;2.20;;;;;;;17.77;67.59;99142.66;6275577;22;20213;-92
2023/02/22 13:11:31;;;;;;;2.63;2.43;;;;;;;17.74;66.92;99143.19;6275084;22;20212;-93
2023/02/22 13:14:10;;;;;;;3.20;2.30;;;;;;;17.62;66.69;99139.19;6275170;22;20204;-92
2023/02/22 13:16:52;;;;;;;2.40;2.20;;;;;;;17.62;66.70;99141.91;6276306;22;20708;-91
2023/02/22 13:19:40;;;;;;;3.10;2.20;;;;;;;17.48;67.24;99145.16;6250281;22;20208;-91
2023/02/22 13:22:19;;;;;;;3.07;2.20;;;;;;;17.55;67.44;99139.44;6276424;22;20491;-92
2023/02/22 13:25:00;;;;;;;2.57;2.00;;;;;;;17.62;68.17;99147.31;6276627;22;20239;-92
2023/02/22 13:28:06;;;;;;;2.23;2.07;;;;;;;17.66;67.05;99137.53;6276415;22;20212;-92
2023/02/22 13:30:38;;;;;;;2.50;2.30;;;;;;;17.29;67.09;99130.59;6276235;22;20232;-92
2023/02/22 13:33:28;;;;;;;2.67;2.47;;;;;;;17.14;67.45;99134.16;6249783;22;20227;-92
2023/02/22 13:36:12;;;;;;;2.77;2.57;;;;;;;17.42;67.21;99140.03;6249545;22;20234;-92
2023/02/22 13:38:44;;;;;;;3.73;2.80;;;;;;;17.46;67.71;99132.97;6274968;22;20210;-92
2023/02/22 13:41:26;;;;;;;3.03;2.50;;;;;;;17.55;67.00;99131.31;6250475;22;20234;-91
2023/02/22 13:44:16;;;;;;;2.93;2.43;;;;;;;17.35;66.88;99129.50;6276426;22;20231;-95
2023/02/22 13:47:07;;;;;;;2.70;2.40;;;;;;;17.56;67.19;99131.03;6275679;22;20228;-92
2023/02/22 13:50:05;;;;;;;3.03;2.73;;;;;;;17.43;66.16;99139.78;6276304;22;20239;-92
2023/02/22 13:52:33;;;;;;;2.50;2.30;;;;;;;17.46;66.33;99125.66;6250130;22;20208;-95
2023/02/22 13:55:02;;;;;;;3.47;2.70;;;;;;;17.43;66.91;99120.00;6224541;22;20211;-90
2023/02/22 13:57:50;;;;;;;3.40;2.43;;;;;;;17.49;67.38;99119.72;6249088;22;20204;-92
2023/02/22 14:00:19;;;;;;;3.20;2.40;;;;;;;17.39;67.17;99114.34;6274674;22;20215;-92
2023/02/22 14:03:01;;;;;;;2.70;2.50;;;;;;;17.40;66.91;99124.09;6249178;22;20208;-92
2023/02/22 14:05:41;;;;;;;3.07;2.63;;;;;;;17.31;66.64;99119.50;6275243;22;20212;-90
2023/02/22 14:08:17;;;;;;;3.53;2.53;;;;;;;17.21;66.54;99117.63;6274746;22;20204;-95
2023/02/22 14:10:53;;;;;;;3.97;3.20;;;;;;;17.23;66.93;99117.34;6274608;22;20234;-91
2023/02/22 14:13:50;;;;;;;3.10;2.80;;;;;;;17.04;67.28;99115.22;6249986;22;20212;-92
2023/02/22 14:16:19;;;;;;;4.00;2.70;;;;;;;17.02;67.65;99112.00;6248357;22;20653;-92
2023/02/22 14:18:48;;;;;;;2.73;2.53;;;;;;;16.93;67.95;99110.94;6249102;22;20232;-91
2023/02/22 14:21:20;;;;;;;2.90;2.70;;;;;;;16.85;67.75;99114.19;6274264;22;20211;-92
2023/02/22 14:23:51;;;;;;;2.73;2.43;;;;;;;16.69;67.66;99108.00;6275946;22;20230;-92
2023/02/22 14:26:27;;;;;;;2.80;2.50;;;;;;;16.65;67.86;99106.91;6249067;22;20211;-92
2023/02/22 14:28:57;;;;;;;3.23;2.87;;;;;;;16.53;68.48;99106.31;6249439;22;20203;-90
2023/02/22 14:31:28;;;;;;;4.50;4.03;;;;;;;16.51;68.50;99102.28;6249606;22;20214;-92
2023/02/22 14:34:16;;;;;;;3.37;2.53;;;;;;;16.44;68.95;99101.72;6249857;22;20207;-93
2023/02/22 14:36:53;;;;;;;4.57;3.70;;;;;;;16.37;68.84;99103.91;6249451;22;20627;-91
2023/02/22 14:39:32;;;;;;;4.13;3.60;;;;;;;16.20;69.06;99098.75;6249505;22;20204;-93
2023/02/22 14:42:35;;;;;;;4.80;3.20;;;;;;;16.21;69.47;99098.47;6274409;22;20212;-92
2023/02/22 14:45:15;;;;;;;3.90;2.80;;;;;;;16.14;69.54;99097.13;6274221;22;20269;-93
2023/02/22 14:48:02;;;;;;;4.10;2.83;;;;;;;15.95;70.11;99094.13;6275960;22;20204;-91
2023/02/22 14:50:45;;;;;;;3.60;2.83;;;;;;;16.01;69.99;99101.13;6274465;22;20204;-92
2023/02/22 14:53:15;;;;;;;3.93;3.53;;;;;;;15.93;70.44;99090.88;6249795;22;20208;-93
2023/02/22 14:55:56;;;;;;;4.87;4.20;;;;;;;15.84;70.94;99097.88;6274754;22;20225;-91
2023/02/22 14:58:29;;;;;;;2.97;2.67;;;;;;;15.73;70.97;99101.63;6220189;22;20269;-93
2023/02/22 15:00:57;;;;;;;3.77;3.10;;;;;;;15.67;71.19;99094.59;6249172;22;20207;-92
2023/02/22 15:03:36;;;;;;;2.80;2.60;;;;;;;15.62;71.76;99102.66;6275143;22;20504;-92
2023/02/22 15:06:28;;;;;;;3.83;2.90;;;;;;;15.61;71.63;99099.16;6248294;22;20690;-91
2023/02/22 15:09:22;;;;;;;3.13;2.57;;;;;;;15.53;72.28;99093.47;6274368;22;20200;-91
2023/02/22 15:12:12;;;;;;;3.60;3.20;;;;;;;15.46;72.96;99093.66;6226576;22;20286;-92
2023/02/22 15:14:40;;;;;;;3.77;3.03;;;;;;;15.52;72.33;99098.06;6275329;22;20211;-93
2023/02/22 15:17:12;;;;;;;3.20;2.90;;;;;;;15.54;72.18;99092.41;6199147;22;20660;-91
2023/02/22 15:19:40;;;;;;;3.27;2.80;;;;;;;15.45;72.49;99092.03;6199009;22;20258;-92
2023/02/22 15:22:20;;;;;;;3.00;2.80;;;;;;;15.31;72.83;99102.50;6248514;22;20204;-91
2023/02/22 15:24:57;;;;;;;6.37;2.93;;;;;;;15.16;73.69;99091.66;6224456;22;20208;-92
2023/02/22 15:27:25;;;;;;;3.23;2.93;;;;;;;15.11;73.56;99093.50;6223914;22;20208;-92
2023/02/22 15:29:58;;;;;;;3.47;3.10;;;;;;;15.02;73.99;99101.28;6223772;22;20208;-92
2023/02/22 15:32:30;;;;;;;3.20;2.90;;;;;;;14.97;74.33;99093.16;6198332;22;20210;-92
2023/02/22 15:35:15;;;;;;;3.23;2.90;;;;;;;15.03;74.42;99100.19;6224359;22;20208;-92
2023/02/22 15:37:43;;;;;;;2.73;2.47;;;;;;;15.22;74.42;99104.09;6278739;22;20204;-92
2023/02/22 15:40:14;;;;;;;4.50;3.30;;;;;;;15.27;73.88;99100.59;6289441;22;20256;-91
2023/02/22 15:42:47;;;;;;;3.33;3.03;;;;;;;15.25;74.09;99100.88;6233738;22;20212;-92
2023/02/22 15:45:16;;;;;;;3.40;3.10;;;;;;;15.12;74.42;99104.03;6228572;22;20205;-92
2023/02/22 15:47:43;;;;;;;3.10;2.90;;;;;;;15.05;74.47;99106.16;6265037;22;20279;-92
2023/02/22 15:50:24;;;;;;;3.30;3.00;;;;;;;15.03;74.60;99105.59;6270112;22;20674;-92
2023/02/22 15:52:59;;;;;;;3.83;3.30;;;;;;;14.74;75.56;99101.66;6227176;22;20207;-92
2023/02/22 15:55:35;;;;;;;3.30;3.00;;;;;;;14.44;76.57;99091.44;6278312;22;20237;-92
2023/02/22 15:58:17;;;;;;;4.73;3.40;;;;;;;14.22;77.29;99096.88;6251030;22;20214;-91
2023/02/22 16:14:37;;;;;;;4.10;3.40;;;;;;;13.13;82.35;99101.56;6222409;22;20209;-87
